Time;durP1;ratioP1;P1;durP2;ratioP2;P2;SDS_P1;SDS_P2;PMS_P1;PMS_P2;Temp;Humidity;BMP_temperature;BMP_pressure;BME280_temperature;BME280_humidity;BME280_pressure;Samples;Min_cycle;Max_cycle;Signal;HPM_P1;HPM_P2
2024/03/06 06:02:28;;;;;;;12.03;7.20;;;;;;;;;;5169920;22;20484;-78
2024/03/06 06:04:54;;;;;;;12.37;7.63;;;;;;;;;;5027187;28;20417;-78
2024/03/06 06:07:21;;;;;;;20.90;6.90;;;;;;;;;;5022191;28;20918;-77
2024/03/06 06:09:47;;;;;;;11.33;7.10;;;;;;;;;;5031641;28;20496;-76
2024/03/06 06:12:13;;;;;;;13.17;7.23;;;;;;;;;;5019104;28;20433;-77
2024/03/06 06:14:39;;;;;;;16.83;7.30;;;;;;;;;;5012978;28;20476;-77
2024/03/06 06:17:05;;;;;;;16.50;7.80;;;;;;;;;;5025408;28;20413;-76
2024/03/06 06:19:31;;;;;;;17.63;7.53;;;;;;;;;;5034699;28;20503;-77
2024/03/06 06:21:57;;;;;;;12.67;7.20;;;;;;;;;;5030434;28;20469;-77
2024/03/06 06:24:23;;;;;;;13.50;7.33;;;;;;;;;;5031946;28;20453;-76
2024/03/06 06:26:49;;;;;;;15.00;7.50;;;;;;;;;;5039403;28;20464;-76
2024/03/06 06:29:15;;;;;;;13.87;7.03;;;;;;;;;;5041369;28;20477;-74
2024/03/06 06:31:41;;;;;;;24.20;7.30;;;;;;;;;;5016922;28;20952;-76
2024/03/06 06:34:07;;;;;;;12.30;7.03;;;;;;;;;;5016778;28;20902;-73
2024/03/06 06:36:32;;;;;;;15.63;7.63;;;;;;;;;;5013788;28;20448;-73
2024/03/06 06:38:58;;;;;;;10.67;6.93;;;;;;;;;;5018067;28;20418;-72
2024/03/06 06:41:24;;;;;;;11.63;7.93;;;;;;;;;;5017828;28;20472;-71
2024/03/06 06:43:54;;;;;;;15.40;8.07;;;;;;;;;;5020639;28;20413;-71
2024/03/06 06:46:21;;;;;;;12.90;7.57;;;;;;;;;;5010993;28;20455;-71
2024/03/06 06:48:48;;;;;;;15.80;8.40;;;;;;;;;;5015239;28;20992;-76
2024/03/06 06:51:14;;;;;;;14.60;8.17;;;;;;;;;;5019510;28;20777;-76
2024/03/06 06:53:41;;;;;;;15.63;8.27;;;;;;;;;;5026767;28;20440;-76
2024/03/06 06:56:07;;;;;;;14.83;8.57;;;;;;;;;;5018916;28;20429;-75
2024/03/06 06:58:33;;;;;;;16.10;7.57;;;;;;;;;;5019826;28;20421;-76
2024/03/06 07:01:00;;;;;;;17.43;9.20;;;;;;;;;;5022768;28;20891;-78
2024/03/06 07:03:29;;;;;;;14.73;7.23;;;;;;;;;;5014906;28;20422;-78
2024/03/06 07:05:55;;;;;;;17.30;7.17;;;;;;;;;;5017205;28;20441;-76
2024/03/06 07:08:21;;;;;;;14.73;7.33;;;;;;;;;;5014164;28;20414;-77
2024/03/06 07:10:47;;;;;;;12.90;7.60;;;;;;;;;;5014029;28;20445;-78
2024/03/06 07:13:13;;;;;;;13.60;6.80;;;;;;;;;;5014005;28;20917;-78
2024/03/06 07:15:39;;;;;;;27.53;8.17;;;;;;;;;;5013220;28;20417;-76
2024/03/06 07:18:05;;;;;;;15.17;7.57;;;;;;;;;;5022087;28;20413;-78
2024/03/06 07:20:31;;;;;;;12.37;6.37;;;;;;;;;;5016727;28;20437;-76
2024/03/06 07:22:58;;;;;;;14.60;7.60;;;;;;;;;;5016932;28;20464;-77
2024/03/06 07:25:24;;;;;;;12.90;6.37;;;;;;;;;;5028728;28;20523;-77
2024/03/06 07:27:50;;;;;;;17.87;7.10;;;;;;;;;;5013204;28;20410;-76
2024/03/06 07:30:16;;;;;;;16.40;7.30;;;;;;;;;;5012689;28;20464;-76
2024/03/06 07:32:42;;;;;;;17.67;7.03;;;;;;;;;;5012792;28;20406;-75
2024/03/06 07:35:08;;;;;;;14.37;7.20;;;;;;;;;;5010976;28;20426;-75
2024/03/06 07:37:34;;;;;;;11.60;6.57;;;;;;;;;;5010944;28;20937;-75
2024/03/06 07:40:00;;;;;;;10.33;6.10;;;;;;;;;;5012234;28;20414;-75
2024/03/06 07:42:26;;;;;;;17.80;7.27;;;;;;;;;;5012036;28;20477;-76
2024/03/06 07:44:52;;;;;;;9.27;6.47;;;;;;;;;;5011825;28;20410;-76
2024/03/06 07:47:18;;;;;;;12.90;6.40;;;;;;;;;;5012383;28;20885;-76
2024/03/06 07:49:44;;;;;;;18.03;7.40;;;;;;;;;;5012298;28;20433;-76
2024/03/06 07:52:10;;;;;;;17.90;8.57;;;;;;;;;;5010747;28;20457;-76
2024/03/06 07:54:36;;;;;;;16.63;6.80;;;;;;;;;;5012170;28;20829;-75
2024/03/06 07:57:03;;;;;;;12.83;7.20;;;;;;;;;;5011997;28;20549;-72
2024/03/06 07:59:29;;;;;;;14.97;6.33;;;;;;;;;;5012070;28;20456;-72
2024/03/06 08:01:55;;;;;;;14.90;7.67;;;;;;;;;;5011928;28;20473;-72
2024/03/06 08:04:21;;;;;;;15.30;8.00;;;;;;;;;;5010520;28;20424;-72
2024/03/06 08:06:47;;;;;;;16.43;8.10;;;;;;;;;;5011773;28;20484;-72
2024/03/06 08:09:14;;;;;;;18.83;7.60;;;;;;;;;;5010157;28;20447;-73
2024/03/06 08:11:39;;;;;;;11.40;7.07;;;;;;;;;;5020282;28;20444;-73
2024/03/06 08:14:06;;;;;;;15.80;7.63;;;;;;;;;;5012846;28;20790;-73
2024/03/06 08:16:33;;;;;;;18.40;7.80;;;;;;;;;;5012169;28;20765;-73
2024/03/06 08:18:59;;;;;;;14.23;7.33;;;;;;;;;;5015027;28;20496;-73
2024/03/06 08:21:26;;;;;;;13.80;6.90;;;;;;;;;;5014466;28;20497;-71
2024/03/06 08:23:52;;;;;;;16.73;7.33;;;;;;;;;;5010776;28;20509;-72
2024/03/06 08:26:19;;;;;;;13.73;6.90;;;;;;;;;;5011347;28;20406;-73
2024/03/06 08:28:45;;;;;;;16.77;6.50;;;;;;;;;;5011324;28;20425;-73
2024/03/06 08:31:11;;;;;;;13.87;6.97;;;;;;;;;;5010554;28;20438;-72
2024/03/06 08:33:37;;;;;;;10.37;6.03;;;;;;;;;;5010930;28;20417;-73
2024/03/06 08:36:03;;;;;;;10.27;6.63;;;;;;;;;;5011491;28;20959;-72
2024/03/06 08:38:29;;;;;;;14.77;6.70;;;;;;;;;;5010924;28;20418;-72
2024/03/06 08:40:55;;;;;;;14.13;7.00;;;;;;;;;;5007241;28;20533;-72
2024/03/06 08:43:21;;;;;;;14.97;6.90;;;;;;;;;;5009586;28;20736;-72
2024/03/06 08:45:47;;;;;;;12.70;6.20;;;;;;;;;;5014027;28;20414;-71
2024/03/06 08:48:13;;;;;;;12.60;6.80;;;;;;;;;;5010784;28;20418;-72
2024/03/06 08:50:39;;;;;;;14.93;7.50;;;;;;;;;;5011156;28;20525;-72
2024/03/06 08:53:05;;;;;;;18.10;7.60;;;;;;;;;;5015093;28;20905;-71
2024/03/06 08:55:31;;;;;;;25.77;7.53;;;;;;;;;;5014696;28;20496;-71
2024/03/06 08:57:58;;;;;;;12.83;7.87;;;;;;;;;;5014888;28;20777;-75
2024/03/06 09:00:26;;;;;;;15.97;8.57;;;;;;;;;;5012907;28;20421;-75
2024/03/06 09:02:53;;;;;;;15.10;7.67;;;;;;;;;;5015097;28;20819;-76
2024/03/06 09:05:20;;;;;;;13.30;7.40;;;;;;;;;;5014221;28;20493;-76
2024/03/06 09:07:46;;;;;;;16.20;8.37;;;;;;;;;;5015963;28;20426;-75
2024/03/06 09:10:12;;;;;;;15.50;7.87;;;;;;;;;;5034555;28;20401;-75
2024/03/06 09:12:39;;;;;;;11.67;8.10;;;;;;;;;;5013191;28;20414;-75
2024/03/06 09:15:07;;;;;;;14.93;8.30;;;;;;;;;;5014280;28;20865;-76
2024/03/06 09:17:33;;;;;;;20.97;9.87;;;;;;;;;;5014656;28;20425;-76
2024/03/06 09:19:59;;;;;;;23.37;9.87;;;;;;;;;;5013165;28;20713;-76
2024/03/06 09:22:25;;;;;;;17.47;9.27;;;;;;;;;;5016145;28;20508;-77
2024/03/06 09:24:51;;;;;;;16.27;9.87;;;;;;;;;;5018115;28;20417;-77
2024/03/06 09:27:17;;;;;;;20.47;9.03;;;;;;;;;;5013454;28;20550;-77
2024/03/06 09:29:44;;;;;;;13.10;8.63;;;;;;;;;;5016110;28;20788;-78
2024/03/06 09:32:12;;;;;;;15.07;9.63;;;;;;;;;;5013860;28;20536;-77
2024/03/06 09:34:38;;;;;;;14.30;8.90;;;;;;;;;;5015304;28;20509;-75
2024/03/06 09:37:05;;;;;;;15.20;7.90;;;;;;;;;;5028688;28;20457;-76
2024/03/06 09:39:31;;;;;;;13.50;7.93;;;;;;;;;;5039949;28;20406;-75
2024/03/06 09:41:57;;;;;;;14.20;7.80;;;;;;;;;;5024030;28;20481;-75
2024/03/06 09:44:23;;;;;;;13.50;8.60;;;;;;;;;;4994601;28;20499;-74
2024/03/06 09:46:49;;;;;;;11.50;7.97;;;;;;;;;;4994845;28;20494;-76
2024/03/06 09:49:16;;;;;;;15.97;9.20;;;;;;;;;;5006085;28;21012;-77
2024/03/06 09:51:53;;;;;;;19.83;11.17;;;;;;;;;;5014240;28;20528;-77
2024/03/06 09:54:20;;;;;;;18.20;9.57;;;;;;;;;;5013725;28;20516;-75
2024/03/06 09:56:46;;;;;;;18.70;11.03;;;;;;;;;;5012252;28;20509;-76
2024/03/06 09:59:12;;;;;;;20.70;11.47;;;;;;;;;;5014544;28;20929;-76
2024/03/06 10:01:41;;;;;;;17.97;11.13;;;;;;;;;;5013281;28;20530;-76
2024/03/06 10:04:20;;;;;;;17.20;11.30;;;;;;;;;;5015413;28;20483;-76
2024/03/06 10:06:47;;;;;;;23.20;12.67;;;;;;;;;;5014170;28;20413;-76
2024/03/06 10:09:13;;;;;;;21.40;12.90;;;;;;;;;;5013281;28;20418;-74
2024/03/06 10:11:40;;;;;;;28.80;13.63;;;;;;;;;;5012779;28;20445;-74
2024/03/06 10:14:06;;;;;;;26.43;12.80;;;;;;;;;;5013391;28;20441;-75
2024/03/06 10:16:32;;;;;;;23.70;14.37;;;;;;;;;;5012260;28;20495;-76
2024/03/06 10:19:16;;;;;;;22.73;13.37;;;;;;;;;;5012983;28;20425;-76
2024/03/06 10:21:44;;;;;;;22.63;13.80;;;;;;;;;;5025262;28;20504;-76
2024/03/06 10:24:11;;;;;;;23.23;14.17;;;;;;;;;;5017693;28;20920;-75
2024/03/06 10:26:37;;;;;;;25.50;14.53;;;;;;;;;;5013710;28;20870;-75
2024/03/06 10:29:03;;;;;;;28.10;15.00;;;;;;;;;;5014216;28;20437;-76
2024/03/06 10:31:29;;;;;;;30.93;14.07;;;;;;;;;;5013538;28;20480;-76
2024/03/06 10:33:55;;;;;;;25.07;14.20;;;;;;;;;;5012715;28;20428;-76
2024/03/06 10:36:21;;;;;;;26.20;14.87;;;;;;;;;;5013552;28;20425;-76
2024/03/06 10:38:49;;;;;;;29.70;16.60;;;;;;;;;;5011963;28;20513;-76
2024/03/06 10:41:15;;;;;;;24.37;12.40;;;;;;;;;;5011552;28;20960;-76
2024/03/06 10:43:43;;;;;;;27.70;16.10;;;;;;;;;;5012845;28;20840;-72
2024/03/06 10:46:11;;;;;;;33.53;16.70;;;;;;;;;;5012534;28;20411;-72
2024/03/06 10:48:38;;;;;;;37.03;18.17;;;;;;;;;;5010927;28;20430;-71
2024/03/06 10:51:04;;;;;;;29.80;17.17;;;;;;;;;;5015463;28;20911;-73
2024/03/06 10:53:31;;;;;;;31.47;18.10;;;;;;;;;;5018084;28;20635;-73
2024/03/06 10:55:58;;;;;;;33.17;19.17;;;;;;;;;;5012810;28;20484;-73
2024/03/06 10:58:24;;;;;;;29.90;17.50;;;;;;;;;;5013042;28;20434;-74
2024/03/06 11:00:51;;;;;;;40.67;19.77;;;;;;;;;;5012603;28;20442;-75
2024/03/06 11:03:17;;;;;;;36.10;20.03;;;;;;;;;;5013087;28;20407;-72
2024/03/06 11:05:46;;;;;;;40.10;19.80;;;;;;;;;;5013633;28;20521;-76
2024/03/06 11:08:13;;;;;;;42.70;20.97;;;;;;;;;;5013074;28;20417;-76
2024/03/06 11:10:39;;;;;;;40.77;20.07;;;;;;;;;;5012717;28;20434;-76
2024/03/06 11:13:21;;;;;;;47.30;23.00;;;;;;;;;;5011870;28;20492;-76
2024/03/06 11:15:47;;;;;;;42.33;20.10;;;;;;;;;;5012807;28;20435;-77
2024/03/06 11:18:31;;;;;;;48.90;24.00;;;;;;;;;;5021202;28;20428;-77
2024/03/06 11:21:03;;;;;;;41.07;21.63;;;;;;;;;;5032575;28;20428;-76
2024/03/06 11:23:30;;;;;;;49.20;22.97;;;;;;;;;;5017198;28;20418;-72
2024/03/06 11:25:58;;;;;;;50.57;21.50;;;;;;;;;;5012618;28;20418;-72
2024/03/06 11:28:26;;;;;;;53.23;24.13;;;;;;;;;;5012612;28;20803;-76
2024/03/06 11:30:57;;;;;;;46.63;23.47;;;;;;;;;;5013446;28;20426;-76
2024/03/06 11:33:24;;;;;;;48.00;23.03;;;;;;;;;;5013122;28;20406;-76
2024/03/06 11:36:09;;;;;;;50.87;25.43;;;;;;;;;;5013341;28;20855;-76
2024/03/06 11:38:38;;;;;;;54.40;23.00;;;;;;;;;;5011899;28;20420;-76
2024/03/06 11:41:08;;;;;;;50.27;22.30;;;;;;;;;;5014842;28;20440;-76
2024/03/06 11:43:42;;;;;;;41.17;20.67;;;;;;;;;;5026653;28;20390;-76
2024/03/06 11:46:09;;;;;;;44.00;22.30;;;;;;;;;;5024198;28;20478;-77
2024/03/06 11:48:35;;;;;;;48.00;24.40;;;;;;;;;;5028128;28;20482;-78
2024/03/06 11:51:02;;;;;;;51.33;25.03;;;;;;;;;;5023156;28;20449;-78
2024/03/06 11:53:30;;;;;;;50.47;24.37;;;;;;;;;;5014360;28;20501;-78
2024/03/06 11:55:56;;;;;;;56.90;25.90;;;;;;;;;;5015971;28;20414;-78
2024/03/06 11:58:23;;;;;;;55.27;25.57;;;;;;;;;;5014099;28;20418;-78
2024/03/06 12:00:49;;;;;;;51.67;23.37;;;;;;;;;;5013793;28;20836;-78
2024/03/06 12:03:15;;;;;;;55.23;25.53;;;;;;;;;;5013870;28;20434;-78
2024/03/06 12:05:42;;;;;;;55.20;25.80;;;;;;;;;;5015538;28;20827;-78
2024/03/06 12:08:08;;;;;;;51.70;25.80;;;;;;;;;;5017830;28;20442;-78
2024/03/06 12:10:37;;;;;;;55.67;25.13;;;;;;;;;;5017709;28;20798;-78
2024/03/06 12:13:03;;;;;;;56.03;25.83;;;;;;;;;;5016411;28;20444;-78
2024/03/06 12:15:29;;;;;;;60.93;25.17;;;;;;;;;;5039430;23;20497;-72
2024/03/06 12:17:55;;;;;;;55.07;26.83;;;;;;;;;;5017176;28;20417;-71
2024/03/06 12:20:21;;;;;;;51.80;25.23;;;;;;;;;;5016326;28;20413;-71
2024/03/06 12:22:50;;;;;;;52.50;26.10;;;;;;;;;;5016295;28;20462;-69
2024/03/06 12:25:23;;;;;;;48.90;22.43;;;;;;;;;;5019615;28;20436;-72
2024/03/06 12:27:50;;;;;;;61.37;24.17;;;;;;;;;;5020940;28;20406;-72
2024/03/06 12:30:20;;;;;;;51.60;24.77;;;;;;;;;;5020167;28;20500;-71
2024/03/06 12:32:56;;;;;;;51.77;25.53;;;;;;;;;;5020671;28;20410;-72
2024/03/06 12:35:26;;;;;;;51.60;25.23;;;;;;;;;;5019709;28;20871;-72
2024/03/06 12:37:52;;;;;;;51.20;22.83;;;;;;;;;;5021012;28;20447;-71
2024/03/06 12:40:18;;;;;;;54.70;27.80;;;;;;;;;;5020929;28;20417;-71
2024/03/06 12:42:45;;;;;;;55.90;24.27;;;;;;;;;;5011861;28;20463;-72
2024/03/06 12:45:13;;;;;;;48.77;21.93;;;;;;;;;;5020990;28;20802;-71
2024/03/06 12:47:41;;;;;;;44.37;22.23;;;;;;;;;;5021293;28;20409;-70
2024/03/06 12:50:07;;;;;;;42.03;21.57;;;;;;;;;;5020269;28;20418;-71
2024/03/06 12:52:34;;;;;;;51.97;24.90;;;;;;;;;;5019795;28;20452;-71
2024/03/06 12:55:00;;;;;;;47.10;22.47;;;;;;;;;;5019081;28;20442;-72
2024/03/06 12:57:27;;;;;;;51.23;25.80;;;;;;;;;;5017546;28;20509;-71
2024/03/06 12:59:53;;;;;;;55.43;25.27;;;;;;;;;;5018304;28;20410;-72
2024/03/06 13:02:19;;;;;;;49.97;22.40;;;;;;;;;;5019899;28;20472;-71
2024/03/06 13:04:45;;;;;;;60.30;25.27;;;;;;;;;;5022195;28;20491;-72
2024/03/06 13:07:12;;;;;;;59.57;25.60;;;;;;;;;;5018858;28;20924;-72
2024/03/06 13:09:37;;;;;;;60.77;26.90;;;;;;;;;;5022767;28;20414;-72
2024/03/06 13:12:06;;;;;;;51.53;24.77;;;;;;;;;;5026428;28;20429;-70
2024/03/06 13:14:32;;;;;;;52.77;26.40;;;;;;;;;;5022611;28;20450;-72
2024/03/06 13:16:58;;;;;;;52.97;25.80;;;;;;;;;;5022727;28;20443;-72
2024/03/06 13:19:24;;;;;;;57.03;25.93;;;;;;;;;;5019217;28;20468;-71
2024/03/06 13:21:50;;;;;;;57.50;27.90;;;;;;;;;;5021841;28;20461;-72
2024/03/06 13:24:16;;;;;;;49.80;24.53;;;;;;;;;;5025162;28;20441;-72
2024/03/06 13:26:42;;;;;;;45.13;22.20;;;;;;;;;;5021908;28;20406;-71
2024/03/06 13:29:08;;;;;;;56.67;25.27;;;;;;;;;;5016193;28;20501;-71
2024/03/06 13:31:34;;;;;;;49.77;25.33;;;;;;;;;;5015881;28;20422;-72
2024/03/06 13:34:03;;;;;;;50.90;24.33;;;;;;;;;;5015577;28;20430;-70
2024/03/06 13:36:29;;;;;;;42.53;23.00;;;;;;;;;;5014903;28;20479;-70
2024/03/06 13:38:55;;;;;;;48.80;24.50;;;;;;;;;;5015448;28;20501;-71
2024/03/06 13:41:22;;;;;;;51.40;26.57;;;;;;;;;;5015748;28;20461;-70
2024/03/06 13:43:48;;;;;;;50.80;26.33;;;;;;;;;;5015017;28;20461;-70
2024/03/06 13:46:14;;;;;;;49.20;25.27;;;;;;;;;;5015136;28;20417;-72
2024/03/06 13:48:40;;;;;;;52.80;24.97;;;;;;;;;;5015214;28;20414;-72
2024/03/06 13:51:06;;;;;;;57.10;25.60;;;;;;;;;;5015126;28;20865;-70
2024/03/06 13:53:32;;;;;;;55.03;25.23;;;;;;;;;;5013958;28;20429;-72
2024/03/06 13:55:58;;;;;;;54.23;25.60;;;;;;;;;;5014957;28;20410;-72
2024/03/06 13:58:24;;;;;;;57.03;25.43;;;;;;;;;;5015073;28;20422;-71
2024/03/06 14:00:51;;;;;;;47.17;24.77;;;;;;;;;;5013873;28;20484;-72
2024/03/06 14:03:16;;;;;;;61.80;26.33;;;;;;;;;;5015593;28;20424;-69
2024/03/06 14:05:42;;;;;;;50.30;23.80;;;;;;;;;;5019884;28;20442;-72
2024/03/06 14:08:11;;;;;;;47.23;23.20;;;;;;;;;;5022166;28;20422;-72
2024/03/06 14:10:39;;;;;;;50.50;25.53;;;;;;;;;;5020639;28;20450;-70
2024/03/06 14:13:06;;;;;;;57.97;25.37;;;;;;;;;;5018456;28;20452;-72
2024/03/06 14:15:32;;;;;;;52.03;26.40;;;;;;;;;;5016414;28;20557;-71
2024/03/06 14:17:58;;;;;;;56.17;25.03;;;;;;;;;;5019134;28;20515;-72
2024/03/06 14:20:24;;;;;;;55.20;26.67;;;;;;;;;;5016995;28;20437;-72
2024/03/06 14:22:50;;;;;;;53.73;26.10;;;;;;;;;;5018297;28;20465;-72
2024/03/06 14:25:17;;;;;;;55.03;25.27;;;;;;;;;;5015500;28;20496;-71
2024/03/06 14:27:44;;;;;;;57.20;27.10;;;;;;;;;;5014343;28;20458;-69
2024/03/06 14:30:15;;;;;;;62.20;28.20;;;;;;;;;;5017023;28;20420;-69
2024/03/06 14:32:41;;;;;;;61.20;28.03;;;;;;;;;;5016522;28;20798;-70
2024/03/06 14:35:08;;;;;;;54.57;27.50;;;;;;;;;;5014893;28;20521;-71
2024/03/06 14:37:34;;;;;;;55.70;26.43;;;;;;;;;;5015350;28;20905;-70
2024/03/06 14:40:00;;;;;;;59.07;26.00;;;;;;;;;;5018043;28;20415;-71
2024/03/06 14:42:26;;;;;;;60.50;27.67;;;;;;;;;;5017055;28;20469;-70
2024/03/06 14:44:52;;;;;;;57.87;25.53;;;;;;;;;;5003637;28;20895;-71
2024/03/06 14:47:18;;;;;;;52.07;25.10;;;;;;;;;;4995758;28;20411;-71
2024/03/06 14:49:44;;;;;;;49.73;25.07;;;;;;;;;;4993309;28;20502;-70
2024/03/06 14:52:12;;;;;;;55.93;27.10;;;;;;;;;;4994502;28;20415;-73
2024/03/06 14:54:40;;;;;;;52.40;23.03;;;;;;;;;;4994245;28;20566;-72
2024/03/06 14:57:06;;;;;;;56.07;25.17;;;;;;;;;;4994435;28;20415;-71
2024/03/06 14:59:32;;;;;;;45.60;22.23;;;;;;;;;;4994891;28;20782;-69
2024/03/06 15:01:58;;;;;;;53.03;25.87;;;;;;;;;;4992867;28;20486;-70
2024/03/06 15:04:24;;;;;;;50.60;24.37;;;;;;;;;;4992678;28;20440;-70
2024/03/06 15:06:50;;;;;;;53.30;24.57;;;;;;;;;;4994026;28;20494;-70
2024/03/06 15:09:21;;;;;;;51.90;24.10;;;;;;;;;;4994317;28;20499;-68
2024/03/06 15:11:47;;;;;;;56.80;28.10;;;;;;;;;;4994097;28;20478;-70
2024/03/06 15:14:13;;;;;;;55.30;26.17;;;;;;;;;;4993855;28;20455;-69
2024/03/06 15:16:40;;;;;;;55.67;24.93;;;;;;;;;;5001770;28;20485;-71
2024/03/06 15:19:06;;;;;;;61.27;25.80;;;;;;;;;;4995404;28;20490;-70
2024/03/06 15:21:32;;;;;;;56.83;23.47;;;;;;;;;;4995731;28;20465;-68
2024/03/06 15:23:58;;;;;;;48.37;22.60;;;;;;;;;;4993012;28;20438;-69
2024/03/06 15:26:24;;;;;;;52.17;24.03;;;;;;;;;;4994860;28;20419;-74
2024/03/06 15:28:50;;;;;;;55.00;25.60;;;;;;;;;;4997701;28;20790;-69
2024/03/06 15:31:16;;;;;;;58.13;26.10;;;;;;;;;;5001130;28;20419;-70
2024/03/06 15:33:43;;;;;;;63.57;28.00;;;;;;;;;;5002129;28;20435;-71
2024/03/06 15:36:09;;;;;;;56.37;24.17;;;;;;;;;;5004816;28;20410;-71
2024/03/06 15:38:35;;;;;;;52.13;27.13;;;;;;;;;;5005399;28;20914;-72
2024/03/06 15:41:01;;;;;;;61.17;26.87;;;;;;;;;;5003883;28;20422;-71
2024/03/06 15:43:27;;;;;;;60.70;25.73;;;;;;;;;;5000708;28;20725;-71
2024/03/06 15:45:53;;;;;;;65.40;28.70;;;;;;;;;;4996191;28;20447;-68
2024/03/06 15:48:19;;;;;;;57.67;26.57;;;;;;;;;;4994446;28;20413;-69
2024/03/06 15:50:45;;;;;;;58.87;27.07;;;;;;;;;;4998470;28;20705;-70
2024/03/06 15:53:12;;;;;;;67.70;29.60;;;;;;;;;;4996205;28;20418;-70
2024/03/06 15:55:38;;;;;;;63.10;28.23;;;;;;;;;;4995569;28;20435;-71
2024/03/06 15:58:04;;;;;;;70.30;29.97;;;;;;;;;;4999537;28;20446;-68
2024/03/06 16:00:30;;;;;;;59.90;26.63;;;;;;;;;;4999342;28;20433;-71
2024/03/06 16:02:57;;;;;;;65.73;29.73;;;;;;;;;;5001413;28;20821;-71
2024/03/06 16:05:23;;;;;;;63.30;27.17;;;;;;;;;;5001342;28;20490;-71
2024/03/06 16:07:50;;;;;;;56.13;26.10;;;;;;;;;;5001675;28;20485;-71
2024/03/06 16:10:16;;;;;;;60.90;27.90;;;;;;;;;;4999622;28;20415;-70
2024/03/06 16:12:42;;;;;;;60.57;27.27;;;;;;;;;;5002060;28;20418;-71
2024/03/06 16:15:08;;;;;;;63.47;26.80;;;;;;;;;;5001282;28;20937;-72
2024/03/06 16:17:34;;;;;;;68.33;27.60;;;;;;;;;;5000155;28;20415;-72
2024/03/06 16:20:04;;;;;;;69.20;28.30;;;;;;;;;;4997750;28;20446;-73
2024/03/06 16:22:30;;;;;;;67.50;29.90;;;;;;;;;;4999192;28;20462;-70
2024/03/06 16:24:56;;;;;;;61.60;27.50;;;;;;;;;;4995698;28;20450;-70
2024/03/06 16:27:22;;;;;;;67.13;27.60;;;;;;;;;;4998330;28;20419;-72
2024/03/06 16:29:48;;;;;;;61.40;26.60;;;;;;;;;;4997778;28;20415;-73
2024/03/06 16:32:14;;;;;;;58.30;26.47;;;;;;;;;;5000020;28;20415;-73
2024/03/06 16:34:41;;;;;;;59.57;27.37;;;;;;;;;;4997788;28;20430;-73
2024/03/06 16:37:07;;;;;;;60.93;26.77;;;;;;;;;;4996442;28;20431;-72
2024/03/06 16:39:33;;;;;;;62.63;27.73;;;;;;;;;;4995437;28;20481;-71
2024/03/06 16:41:59;;;;;;;65.37;26.87;;;;;;;;;;4997899;28;20474;-72
2024/03/06 16:44:25;;;;;;;62.57;29.17;;;;;;;;;;5003092;28;20454;-72
2024/03/06 16:46:51;;;;;;;72.63;28.97;;;;;;;;;;5028597;28;20494;-72
2024/03/06 16:49:18;;;;;;;67.77;28.00;;;;;;;;;;5032651;28;20897;-70
2024/03/06 16:51:44;;;;;;;67.60;28.90;;;;;;;;;;5030864;28;20553;-74
2024/03/06 16:54:10;;;;;;;61.43;27.03;;;;;;;;;;5033822;28;20433;-70
2024/03/06 16:56:36;;;;;;;63.03;29.23;;;;;;;;;;5034628;28;20425;-72
2024/03/06 16:59:02;;;;;;;70.73;30.10;;;;;;;;;;5027056;28;20425;-73
2024/03/06 17:01:28;;;;;;;64.07;28.63;;;;;;;;;;5013595;28;20466;-73
2024/03/06 17:03:54;;;;;;;66.07;29.00;;;;;;;;;;5012234;28;20948;-74
2024/03/06 17:06:20;;;;;;;73.80;29.60;;;;;;;;;;5012382;28;20402;-71
2024/03/06 17:08:46;;;;;;;67.30;28.23;;;;;;;;;;5012775;28;20493;-74
2024/03/06 17:11:12;;;;;;;73.03;31.17;;;;;;;;;;5013037;28;20425;-73
2024/03/06 17:13:40;;;;;;;69.93;31.17;;;;;;;;;;5015340;28;20521;-73
2024/03/06 17:16:07;;;;;;;72.53;31.20;;;;;;;;;;5015701;28;20493;-73
2024/03/06 17:18:33;;;;;;;71.27;29.23;;;;;;;;;;5015770;28;20421;-74
2024/03/06 17:21:00;;;;;;;64.07;29.43;;;;;;;;;;5015718;28;20898;-71
2024/03/06 17:23:26;;;;;;;73.67;31.80;;;;;;;;;;5014649;28;20461;-73
2024/03/06 17:25:51;;;;;;;80.03;32.03;;;;;;;;;;5016056;28;20431;-73
2024/03/06 17:28:18;;;;;;;72.97;30.27;;;;;;;;;;5015716;28;20402;-72
2024/03/06 17:30:46;;;;;;;65.77;28.70;;;;;;;;;;5015975;28;20459;-72
2024/03/06 17:33:15;;;;;;;78.50;30.50;;;;;;;;;;5015902;28;20414;-71
2024/03/06 17:35:43;;;;;;;72.17;30.83;;;;;;;;;;5015462;28;20422;-73
2024/03/06 17:38:10;;;;;;;83.43;32.90;;;;;;;;;;5015384;28;20406;-71
2024/03/06 17:40:36;;;;;;;82.40;30.50;;;;;;;;;;5019051;28;20422;-74
2024/03/06 17:43:02;;;;;;;76.33;29.90;;;;;;;;;;5018177;28;20528;-73
2024/03/06 17:45:29;;;;;;;65.17;29.97;;;;;;;;;;5016181;28;20442;-72
2024/03/06 17:47:55;;;;;;;79.40;31.87;;;;;;;;;;5015623;28;20416;-73
2024/03/06 17:50:21;;;;;;;67.00;30.00;;;;;;;;;;5017315;28;20766;-74
2024/03/06 17:52:47;;;;;;;72.13;33.70;;;;;;;;;;5020623;28;20485;-73
2024/03/06 17:55:13;;;;;;;82.13;33.90;;;;;;;;;;5019421;28;20434;-74
2024/03/06 17:57:45;;;;;;;71.53;32.17;;;;;;;;;;5019824;28;20423;-71
2024/03/06 18:00:15;;;;;;;78.57;33.00;;;;;;;;;;5023033;28;20406;-74
2024/03/06 18:02:41;;;;;;;63.10;30.73;;;;;;;;;;5022421;28;20457;-73
2024/03/06 18:05:07;;;;;;;74.97;34.10;;;;;;;;;;5015291;28;20434;-73
2024/03/06 18:07:33;;;;;;;70.53;31.33;;;;;;;;;;5015346;28;20909;-73
2024/03/06 18:09:59;;;;;;;69.63;29.60;;;;;;;;;;5015165;28;20410;-73
2024/03/06 18:12:28;;;;;;;70.93;30.30;;;;;;;;;;5018892;28;20425;-73
2024/03/06 18:14:55;;;;;;;63.03;28.70;;;;;;;;;;5050343;23;21064;-75
2024/03/06 18:17:23;;;;;;;82.17;35.83;;;;;;;;;;5034088;28;20398;-76
2024/03/06 18:19:49;;;;;;;73.33;30.43;;;;;;;;;;5033868;28;20829;-76
2024/03/06 18:22:15;;;;;;;67.00;30.10;;;;;;;;;;5032142;28;20555;-76
2024/03/06 18:24:41;;;;;;;71.00;31.43;;;;;;;;;;5032328;28;20437;-76
2024/03/06 18:27:07;;;;;;;67.07;29.53;;;;;;;;;;5033730;28;20417;-76
2024/03/06 18:29:33;;;;;;;71.13;32.97;;;;;;;;;;5032695;28;20409;-76
2024/03/06 18:31:59;;;;;;;63.73;27.10;;;;;;;;;;5032530;28;20448;-77
2024/03/06 18:34:25;;;;;;;63.97;29.60;;;;;;;;;;5032149;28;20472;-76
2024/03/06 18:36:52;;;;;;;68.87;30.63;;;;;;;;;;5033534;28;20413;-75
2024/03/06 18:39:18;;;;;;;56.73;28.87;;;;;;;;;;5033487;28;20440;-77
2024/03/06 18:41:45;;;;;;;63.60;28.80;;;;;;;;;;5033610;28;20959;-77
2024/03/06 18:44:11;;;;;;;66.60;29.03;;;;;;;;;;5032247;28;20428;-77
2024/03/06 18:46:40;;;;;;;66.70;26.60;;;;;;;;;;5046255;28;20460;-74
2024/03/06 18:49:07;;;;;;;61.40;28.50;;;;;;;;;;5033212;28;20804;-75
2024/03/06 18:51:34;;;;;;;63.93;29.13;;;;;;;;;;5032276;28;20478;-75
2024/03/06 18:54:00;;;;;;;66.27;28.50;;;;;;;;;;5032979;28;20433;-77
2024/03/06 18:56:26;;;;;;;65.63;28.50;;;;;;;;;;5032008;28;20775;-75
2024/03/06 18:58:52;;;;;;;48.70;23.93;;;;;;;;;;5033009;28;20417;-75
2024/03/06 19:01:19;;;;;;;62.50;29.17;;;;;;;;;;5033051;28;20462;-77
2024/03/06 19:03:45;;;;;;;58.23;26.37;;;;;;;;;;5033084;28;20413;-77
2024/03/06 19:06:11;;;;;;;75.00;30.20;;;;;;;;;;5032876;28;20480;-77
2024/03/06 19:08:38;;;;;;;68.03;32.17;;;;;;;;;;5033108;28;20496;-76
2024/03/06 19:11:04;;;;;;;66.13;30.00;;;;;;;;;;5033105;28;20818;-76
2024/03/06 19:13:30;;;;;;;56.87;26.50;;;;;;;;;;5033265;28;20931;-76
2024/03/06 19:15:56;;;;;;;63.07;31.53;;;;;;;;;;5032431;28;20447;-77
2024/03/06 19:18:22;;;;;;;61.13;28.30;;;;;;;;;;5032960;28;20405;-76
2024/03/06 19:20:48;;;;;;;61.13;27.50;;;;;;;;;;5032526;28;20979;-78
2024/03/06 19:23:14;;;;;;;70.13;29.37;;;;;;;;;;5033008;28;20948;-77
2024/03/06 19:25:40;;;;;;;62.00;27.97;;;;;;;;;;5032567;28;20444;-75
2024/03/06 19:28:06;;;;;;;65.13;28.90;;;;;;;;;;5033030;28;20405;-76
2024/03/06 19:30:33;;;;;;;59.40;28.30;;;;;;;;;;5033021;28;20401;-76
2024/03/06 19:32:59;;;;;;;64.40;26.20;;;;;;;;;;5032716;28;20927;-76
2024/03/06 19:35:25;;;;;;;72.63;29.07;;;;;;;;;;5030433;28;20508;-75
2024/03/06 19:37:53;;;;;;;67.77;30.97;;;;;;;;;;5032598;28;20417;-76
2024/03/06 19:40:19;;;;;;;90.10;37.80;;;;;;;;;;5032791;28;21027;-76
2024/03/06 19:42:48;;;;;;;73.20;31.93;;;;;;;;;;5032565;28;20456;-75
2024/03/06 19:45:15;;;;;;;74.07;30.83;;;;;;;;;;5030773;28;20452;-76
2024/03/06 19:47:41;;;;;;;71.40;31.80;;;;;;;;;;5032208;28;20492;-76
2024/03/06 19:50:08;;;;;;;70.70;28.83;;;;;;;;;;5032181;28;20459;-76
2024/03/06 19:52:34;;;;;;;70.97;29.43;;;;;;;;;;5032319;28;20458;-76
2024/03/06 19:55:00;;;;;;;64.53;31.13;;;;;;;;;;5032066;28;20800;-76
2024/03/06 19:57:26;;;;;;;67.90;30.70;;;;;;;;;;5032183;28;20405;-76
2024/03/06 19:59:53;;;;;;;65.57;32.67;;;;;;;;;;5030902;28;20414;-76
2024/03/06 20:02:19;;;;;;;66.03;30.30;;;;;;;;;;5032015;28;20484;-76
2024/03/06 20:04:46;;;;;;;67.27;29.77;;;;;;;;;;5031763;28;20437;-75
2024/03/06 20:07:12;;;;;;;69.17;31.27;;;;;;;;;;5031996;28;20488;-77
2024/03/06 20:09:38;;;;;;;68.80;29.10;;;;;;;;;;5032024;28;20412;-77
2024/03/06 20:12:04;;;;;;;76.70;33.80;;;;;;;;;;5031890;28;20499;-76
2024/03/06 20:14:32;;;;;;;72.60;34.43;;;;;;;;;;5031406;28;20449;-76
2024/03/06 20:16:58;;;;;;;74.17;32.43;;;;;;;;;;5031635;28;20428;-76
2024/03/06 20:19:25;;;;;;;72.90;32.97;;;;;;;;;;5032085;28;20843;-75